Lac Seul, Canada
Current Conditions -  °F | °C
As of 6:26 AM on Monday 26 Jan 2015 (Local Time) from CYXL Reporting Station
Light Snow Light Snow  
Wind Chill: 11°   Ceiling: 1100
Heat Index: 18°   Visibility: 2mi
Dew Point: 16°   Wind: 5mph
Humidity: 93%   Direction: 150°SSE
Pressure: 29.57"   Gusts: NA
Location:  50.32°N, 92.28°W
Report Text: CYXL 261226Z 15004KT 2SM -SN VV011 M08/M09 A2957 RMK SN8 SLP044
Loading
Personal Weather Stations






























Interactive Weather Map New forecast layout! Learn more

10-Day Weather Forecast

Advertisements
Track Severe Weather on mobile